sensor_id;sensor_type;location;lat;lon;timestamp;temperature;humidity
59234;DHT22;60776;51.702;7.462;2023-07-24T00:00:20;20.00;99.90
59234;DHT22;60776;51.702;7.462;2023-07-24T00:02:46;20.10;99.90
59234;DHT22;60776;51.702;7.462;2023-07-24T00:05:11;20.10;99.90
59234;DHT22;60776;51.702;7.462;2023-07-24T00:07:37;20.10;99.90
59234;DHT22;60776;51.702;7.462;2023-07-24T00:10:03;20.10;99.90
59234;DHT22;60776;51.702;7.462;2023-07-24T00:12:29;20.10;99.90
59234;DHT22;60776;51.702;7.462;2023-07-24T00:14:57;20.10;99.90
59234;DHT22;60776;51.702;7.462;2023-07-24T00:17:22;20.10;99.90
59234;DHT22;60776;51.702;7.462;2023-07-24T00:19:48;20.10;99.90
59234;DHT22;60776;51.702;7.462;2023-07-24T00:22:14;20.10;99.90
59234;DHT22;60776;51.702;7.462;2023-07-24T00:24:40;20.10;99.90
59234;DHT22;60776;51.702;7.462;2023-07-24T00:27:08;20.10;99.90
59234;DHT22;60776;51.702;7.462;2023-07-24T00:29:34;20.10;99.90
59234;DHT22;60776;51.702;7.462;2023-07-24T00:32:00;20.00;99.90
59234;DHT22;60776;51.702;7.462;2023-07-24T00:34:25;20.00;99.90
59234;DHT22;60776;51.702;7.462;2023-07-24T00:36:51;20.00;99.90
59234;DHT22;60776;51.702;7.462;2023-07-24T00:39:17;19.90;99.90
59234;DHT22;60776;51.702;7.462;2023-07-24T00:41:45;19.90;99.90
59234;DHT22;60776;51.702;7.462;2023-07-24T00:44:11;19.80;99.90
59234;DHT22;60776;51.702;7.462;2023-07-24T00:46:37;19.70;99.90
59234;DHT22;60776;51.702;7.462;2023-07-24T00:49:04;19.70;99.90
59234;DHT22;60776;51.702;7.462;2023-07-24T00:51:30;19.70;99.90
59234;DHT22;60776;51.702;7.462;2023-07-24T00:53:58;19.70;99.90
59234;DHT22;60776;51.702;7.462;2023-07-24T00:56:25;19.60;99.90
59234;DHT22;60776;51.702;7.462;2023-07-24T00:58:52;19.70;99.90
59234;DHT22;60776;51.702;7.462;2023-07-24T01:01:21;19.70;99.90
59234;DHT22;60776;51.702;7.462;2023-07-24T01:03:47;19.60;99.90
59234;DHT22;60776;51.702;7.462;2023-07-24T01:06:14;19.60;99.90
59234;DHT22;60776;51.702;7.462;2023-07-24T01:08:40;19.50;99.90
59234;DHT22;60776;51.702;7.462;2023-07-24T01:13:44;19.50;99.90
59234;DHT22;60776;51.702;7.462;2023-07-24T01:16:15;19.50;99.90
59234;DHT22;60776;51.702;7.462;2023-07-24T01:18:45;19.40;99.90
59234;DHT22;60776;51.702;7.462;2023-07-24T01:21:12;19.40;99.90
59234;DHT22;60776;51.702;7.462;2023-07-24T01:26:19;19.40;99.90
59234;DHT22;60776;51.702;7.462;2023-07-24T01:28:45;19.30;99.90
59234;DHT22;60776;51.702;7.462;2023-07-24T01:31:11;19.20;99.90
59234;DHT22;60776;51.702;7.462;2023-07-24T01:33:37;19.20;99.90
59234;DHT22;60776;51.702;7.462;2023-07-24T01:36:04;19.20;99.90
59234;DHT22;60776;51.702;7.462;2023-07-24T01:38:31;19.20;99.90
59234;DHT22;60776;51.702;7.462;2023-07-24T01:40:59;19.20;99.90
59234;DHT22;60776;51.702;7.462;2023-07-24T01:43:26;19.20;99.90
59234;DHT22;60776;51.702;7.462;2023-07-24T01:45:54;19.20;99.90
59234;DHT22;60776;51.702;7.462;2023-07-24T01:48:22;19.10;99.90
59234;DHT22;60776;51.702;7.462;2023-07-24T01:50:48;19.10;99.90
59234;DHT22;60776;51.702;7.462;2023-07-24T01:53:14;19.10;99.90
59234;DHT22;60776;51.702;7.462;2023-07-24T01:55:39;19.10;99.90
59234;DHT22;60776;51.702;7.462;2023-07-24T01:58:05;19.10;99.90
59234;DHT22;60776;51.702;7.462;2023-07-24T02:00:31;19.10;99.90
59234;DHT22;60776;51.702;7.462;2023-07-24T02:02:56;19.10;99.90
59234;DHT22;60776;51.702;7.462;2023-07-24T02:05:22;19.10;99.90
59234;DHT22;60776;51.702;7.462;2023-07-24T02:07:48;19.20;99.90
59234;DHT22;60776;51.702;7.462;2023-07-24T02:10:14;19.20;99.90
59234;DHT22;60776;51.702;7.462;2023-07-24T02:12:39;19.20;99.90
59234;DHT22;60776;51.702;7.462;2023-07-24T02:15:06;19.30;99.90
59234;DHT22;60776;51.702;7.462;2023-07-24T02:17:32;19.30;99.90
59234;DHT22;60776;51.702;7.462;2023-07-24T02:20:00;19.30;99.90
59234;DHT22;60776;51.702;7.462;2023-07-24T02:22:27;19.30;99.90
59234;DHT22;60776;51.702;7.462;2023-07-24T02:24:53;19.30;99.90
59234;DHT22;60776;51.702;7.462;2023-07-24T02:27:30;19.30;99.90
59234;DHT22;60776;51.702;7.462;2023-07-24T02:30:00;19.30;99.90
59234;DHT22;60776;51.702;7.462;2023-07-24T02:32:26;19.30;99.90
59234;DHT22;60776;51.702;7.462;2023-07-24T02:34:52;19.30;99.90
59234;DHT22;60776;51.702;7.462;2023-07-24T02:37:23;19.30;99.90
59234;DHT22;60776;51.702;7.462;2023-07-24T02:39:49;19.30;99.90
59234;DHT22;60776;51.702;7.462;2023-07-24T02:42:15;19.20;99.90
59234;DHT22;60776;51.702;7.462;2023-07-24T02:44:40;19.20;99.90
59234;DHT22;60776;51.702;7.462;2023-07-24T02:47:09;19.20;99.90
59234;DHT22;60776;51.702;7.462;2023-07-24T02:49:35;19.20;99.90
59234;DHT22;60776;51.702;7.462;2023-07-24T02:52:00;19.10;99.90
59234;DHT22;60776;51.702;7.462;2023-07-24T02:54:26;19.20;99.90
59234;DHT22;60776;51.702;7.462;2023-07-24T02:56:52;19.30;99.90
59234;DHT22;60776;51.702;7.462;2023-07-24T02:59:18;19.30;99.90
59234;DHT22;60776;51.702;7.462;2023-07-24T03:01:44;19.30;99.90
59234;DHT22;60776;51.702;7.462;2023-07-24T03:04:09;19.40;99.90
59234;DHT22;60776;51.702;7.462;2023-07-24T03:06:35;19.40;99.90
59234;DHT22;60776;51.702;7.462;2023-07-24T03:09:01;19.40;99.90
59234;DHT22;60776;51.702;7.462;2023-07-24T03:11:26;19.50;99.90
59234;DHT22;60776;51.702;7.462;2023-07-24T03:13:52;19.50;99.90
59234;DHT22;60776;51.702;7.462;2023-07-24T03:16:18;19.50;99.90
59234;DHT22;60776;51.702;7.462;2023-07-24T03:18:47;19.60;99.90
59234;DHT22;60776;51.702;7.462;2023-07-24T03:21:13;19.60;99.90
59234;DHT22;60776;51.702;7.462;2023-07-24T03:23:38;19.60;99.90
59234;DHT22;60776;51.702;7.462;2023-07-24T03:26:04;19.70;99.90
59234;DHT22;60776;51.702;7.462;2023-07-24T03:28:30;19.70;99.90
59234;DHT22;60776;51.702;7.462;2023-07-24T03:30:55;19.70;99.90
59234;DHT22;60776;51.702;7.462;2023-07-24T03:33:28;19.70;99.90
59234;DHT22;60776;51.702;7.462;2023-07-24T03:35:54;19.70;99.90
59234;DHT22;60776;51.702;7.462;2023-07-24T03:38:20;19.80;99.90
59234;DHT22;60776;51.702;7.462;2023-07-24T03:40:46;19.80;99.90
59234;DHT22;60776;51.702;7.462;2023-07-24T03:43:12;19.80;99.90
59234;DHT22;60776;51.702;7.462;2023-07-24T03:45:38;19.70;99.90
59234;DHT22;60776;51.702;7.462;2023-07-24T03:48:04;19.70;99.90
59234;DHT22;60776;51.702;7.462;2023-07-24T03:50:30;19.60;99.90
59234;DHT22;60776;51.702;7.462;2023-07-24T03:52:56;19.60;99.90
59234;DHT22;60776;51.702;7.462;2023-07-24T03:55:21;19.60;99.90
59234;DHT22;60776;51.702;7.462;2023-07-24T03:57:47;19.50;99.90
59234;DHT22;60776;51.702;7.462;2023-07-24T04:00:13;19.40;99.90
59234;DHT22;60776;51.702;7.462;2023-07-24T04:02:39;19.40;99.90
59234;DHT22;60776;51.702;7.462;2023-07-24T04:05:08;19.40;99.90
59234;DHT22;60776;51.702;7.462;2023-07-24T04:07:33;19.30;99.90
59234;DHT22;60776;51.702;7.462;2023-07-24T04:09:59;19.40;99.90
59234;DHT22;60776;51.702;7.462;2023-07-24T04:12:24;19.10;99.90
59234;DHT22;60776;51.702;7.462;2023-07-24T04:14:50;18.80;99.90
59234;DHT22;60776;51.702;7.462;2023-07-24T04:17:16;18.70;99.90
59234;DHT22;60776;51.702;7.462;2023-07-24T04:19:42;18.60;99.90
59234;DHT22;60776;51.702;7.462;2023-07-24T04:22:10;18.50;99.90
59234;DHT22;60776;51.702;7.462;2023-07-24T04:24:35;18.50;99.90
59234;DHT22;60776;51.702;7.462;2023-07-24T04:27:01;18.40;99.90
59234;DHT22;60776;51.702;7.462;2023-07-24T04:29:27;18.40;99.90
59234;DHT22;60776;51.702;7.462;2023-07-24T04:31:52;18.50;99.90
59234;DHT22;60776;51.702;7.462;2023-07-24T04:34:21;18.50;99.90
59234;DHT22;60776;51.702;7.462;2023-07-24T04:36:47;18.50;99.90
59234;DHT22;60776;51.702;7.462;2023-07-24T04:39:13;18.60;99.90
59234;DHT22;60776;51.702;7.462;2023-07-24T04:41:41;18.70;99.90
59234;DHT22;60776;51.702;7.462;2023-07-24T04:44:06;18.70;99.90
59234;DHT22;60776;51.702;7.462;2023-07-24T04:46:32;18.80;99.90
59234;DHT22;60776;51.702;7.462;2023-07-24T04:49:05;18.90;99.90
59234;DHT22;60776;51.702;7.462;2023-07-24T04:51:31;19.00;99.90
59234;DHT22;60776;51.702;7.462;2023-07-24T04:53:56;19.00;99.90
59234;DHT22;60776;51.702;7.462;2023-07-24T04:56:24;19.00;99.90
59234;DHT22;60776;51.702;7.462;2023-07-24T04:58:53;19.10;99.90
59234;DHT22;60776;51.702;7.462;2023-07-24T05:01:21;19.00;99.90
59234;DHT22;60776;51.702;7.462;2023-07-24T05:03:47;19.00;99.90
59234;DHT22;60776;51.702;7.462;2023-07-24T05:06:13;19.00;99.90
59234;DHT22;60776;51.702;7.462;2023-07-24T05:08:38;18.90;99.90
59234;DHT22;60776;51.702;7.462;2023-07-24T05:11:04;18.90;99.90
59234;DHT22;60776;51.702;7.462;2023-07-24T05:13:30;18.80;99.90
59234;DHT22;60776;51.702;7.462;2023-07-24T05:15:58;18.80;99.90
59234;DHT22;60776;51.702;7.462;2023-07-24T05:18:25;18.90;99.90
59234;DHT22;60776;51.702;7.462;2023-07-24T05:20:51;18.90;99.90
59234;DHT22;60776;51.702;7.462;2023-07-24T05:23:17;18.90;99.90
59234;DHT22;60776;51.702;7.462;2023-07-24T05:25:43;18.90;99.90
59234;DHT22;60776;51.702;7.462;2023-07-24T05:28:09;18.80;99.90
59234;DHT22;60776;51.702;7.462;2023-07-24T05:30:35;18.80;99.90
59234;DHT22;60776;51.702;7.462;2023-07-24T05:33:01;18.80;99.90
59234;DHT22;60776;51.702;7.462;2023-07-24T05:35:27;18.90;99.90
59234;DHT22;60776;51.702;7.462;2023-07-24T05:37:52;18.90;99.90
59234;DHT22;60776;51.702;7.462;2023-07-24T05:40:18;18.90;99.90
59234;DHT22;60776;51.702;7.462;2023-07-24T05:42:44;18.90;99.90
59234;DHT22;60776;51.702;7.462;2023-07-24T05:45:10;19.00;99.90
59234;DHT22;60776;51.702;7.462;2023-07-24T05:47:40;19.10;99.90
59234;DHT22;60776;51.702;7.462;2023-07-24T05:50:06;19.00;99.90
59234;DHT22;60776;51.702;7.462;2023-07-24T05:52:32;19.00;99.90
59234;DHT22;60776;51.702;7.462;2023-07-24T05:54:57;19.10;99.90
59234;DHT22;60776;51.702;7.462;2023-07-24T05:57:25;19.10;99.90
59234;DHT22;60776;51.702;7.462;2023-07-24T05:59:51;19.10;99.90
59234;DHT22;60776;51.702;7.462;2023-07-24T06:02:17;19.10;99.90
59234;DHT22;60776;51.702;7.462;2023-07-24T06:04:43;19.20;99.90
59234;DHT22;60776;51.702;7.462;2023-07-24T06:07:09;19.20;99.90
59234;DHT22;60776;51.702;7.462;2023-07-24T06:09:34;19.30;99.90
59234;DHT22;60776;51.702;7.462;2023-07-24T06:12:00;19.40;99.90
59234;DHT22;60776;51.702;7.462;2023-07-24T06:14:28;19.40;99.90
59234;DHT22;60776;51.702;7.462;2023-07-24T06:16:54;19.50;99.90
59234;DHT22;60776;51.702;7.462;2023-07-24T06:19:19;19.60;99.90
59234;DHT22;60776;51.702;7.462;2023-07-24T06:21:47;19.70;99.90
59234;DHT22;60776;51.702;7.462;2023-07-24T06:24:17;19.90;99.90
59234;DHT22;60776;51.702;7.462;2023-07-24T06:26:43;20.00;99.90
59234;DHT22;60776;51.702;7.462;2023-07-24T06:29:09;20.10;99.90
59234;DHT22;60776;51.702;7.462;2023-07-24T06:31:34;20.20;99.90
59234;DHT22;60776;51.702;7.462;2023-07-24T06:34:00;20.30;99.90
59234;DHT22;60776;51.702;7.462;2023-07-24T06:36:26;20.40;99.90
59234;DHT22;60776;51.702;7.462;2023-07-24T06:38:51;20.50;99.90
59234;DHT22;60776;51.702;7.462;2023-07-24T06:41:17;20.80;99.90
59234;DHT22;60776;51.702;7.462;2023-07-24T06:43:45;20.90;99.90
59234;DHT22;60776;51.702;7.462;2023-07-24T06:46:11;20.90;99.90
59234;DHT22;60776;51.702;7.462;2023-07-24T06:48:37;20.90;99.90
59234;DHT22;60776;51.702;7.462;2023-07-24T06:51:02;21.00;99.90
59234;DHT22;60776;51.702;7.462;2023-07-24T06:53:28;21.00;99.90
59234;DHT22;60776;51.702;7.462;2023-07-24T06:55:54;21.00;99.90
59234;DHT22;60776;51.702;7.462;2023-07-24T06:58:19;21.10;99.90
59234;DHT22;60776;51.702;7.462;2023-07-24T07:00:45;21.00;99.90
59234;DHT22;60776;51.702;7.462;2023-07-24T07:03:11;21.10;99.90
59234;DHT22;60776;51.702;7.462;2023-07-24T07:05:36;21.10;99.90
59234;DHT22;60776;51.702;7.462;2023-07-24T07:08:02;21.10;99.90
59234;DHT22;60776;51.702;7.462;2023-07-24T07:10:28;21.30;99.90
59234;DHT22;60776;51.702;7.462;2023-07-24T07:12:55;21.30;99.90
59234;DHT22;60776;51.702;7.462;2023-07-24T07:15:23;21.40;99.90
59234;DHT22;60776;51.702;7.462;2023-07-24T07:17:49;21.50;99.90
59234;DHT22;60776;51.702;7.462;2023-07-24T07:20:15;21.60;99.90
59234;DHT22;60776;51.702;7.462;2023-07-24T07:22:41;21.90;99.90
59234;DHT22;60776;51.702;7.462;2023-07-24T07:25:07;22.40;99.90
59234;DHT22;60776;51.702;7.462;2023-07-24T07:27:32;22.70;99.90
59234;DHT22;60776;51.702;7.462;2023-07-24T07:29:58;22.80;99.90
59234;DHT22;60776;51.702;7.462;2023-07-24T07:32:24;22.80;99.90
59234;DHT22;60776;51.702;7.462;2023-07-24T07:34:50;22.80;99.90
59234;DHT22;60776;51.702;7.462;2023-07-24T07:37:16;22.60;99.90
59234;DHT22;60776;51.702;7.462;2023-07-24T07:39:41;22.50;99.90
59234;DHT22;60776;51.702;7.462;2023-07-24T07:42:07;22.30;99.90
59234;DHT22;60776;51.702;7.462;2023-07-24T07:44:33;22.10;99.90
59234;DHT22;60776;51.702;7.462;2023-07-24T07:46:58;22.00;99.90
59234;DHT22;60776;51.702;7.462;2023-07-24T07:49:24;21.80;99.90
59234;DHT22;60776;51.702;7.462;2023-07-24T07:51:50;21.90;99.90
59234;DHT22;60776;51.702;7.462;2023-07-24T07:54:15;22.10;99.90
59234;DHT22;60776;51.702;7.462;2023-07-24T07:56:41;22.30;99.90
59234;DHT22;60776;51.702;7.462;2023-07-24T07:59:07;22.70;99.90
59234;DHT22;60776;51.702;7.462;2023-07-24T08:01:35;23.10;99.90
59234;DHT22;60776;51.702;7.462;2023-07-24T08:04:01;23.50;99.90
59234;DHT22;60776;51.702;7.462;2023-07-24T08:06:26;23.70;99.90
59234;DHT22;60776;51.702;7.462;2023-07-24T08:08:52;23.70;99.90
59234;DHT22;60776;51.702;7.462;2023-07-24T08:11:18;23.50;99.90
59234;DHT22;60776;51.702;7.462;2023-07-24T08:13:43;23.20;99.90
59234;DHT22;60776;51.702;7.462;2023-07-24T08:16:13;22.90;99.90
59234;DHT22;60776;51.702;7.462;2023-07-24T08:18:45;22.60;99.90
59234;DHT22;60776;51.702;7.462;2023-07-24T08:21:11;22.30;99.90
59234;DHT22;60776;51.702;7.462;2023-07-24T08:23:37;22.00;99.90
59234;DHT22;60776;51.702;7.462;2023-07-24T08:26:02;21.70;99.90
59234;DHT22;60776;51.702;7.462;2023-07-24T08:28:28;21.60;99.90
59234;DHT22;60776;51.702;7.462;2023-07-24T08:30:58;21.60;99.90
59234;DHT22;60776;51.702;7.462;2023-07-24T08:33:24;21.60;99.90
59234;DHT22;60776;51.702;7.462;2023-07-24T08:36:06;21.70;99.90
59234;DHT22;60776;51.702;7.462;2023-07-24T08:38:33;22.00;99.90
59234;DHT22;60776;51.702;7.462;2023-07-24T08:43:33;25.10;99.90
59234;DHT22;60776;51.702;7.462;2023-07-24T08:46:00;27.30;99.90
59234;DHT22;60776;51.702;7.462;2023-07-24T08:48:29;29.20;99.90
59234;DHT22;60776;51.702;7.462;2023-07-24T08:51:09;31.10;99.90
59234;DHT22;60776;51.702;7.462;2023-07-24T08:53:41;32.20;99.90
59234;DHT22;60776;51.702;7.462;2023-07-24T08:56:09;32.10;99.90
59234;DHT22;60776;51.702;7.462;2023-07-24T08:58:38;31.80;99.90
59234;DHT22;60776;51.702;7.462;2023-07-24T09:01:09;31.10;99.90
59234;DHT22;60776;51.702;7.462;2023-07-24T09:03:37;30.00;99.90
59234;DHT22;60776;51.702;7.462;2023-07-24T09:06:03;29.20;99.90
59234;DHT22;60776;51.702;7.462;2023-07-24T09:08:37;28.80;99.90
59234;DHT22;60776;51.702;7.462;2023-07-24T09:11:04;29.10;99.90
59234;DHT22;60776;51.702;7.462;2023-07-24T09:13:31;29.90;99.90
59234;DHT22;60776;51.702;7.462;2023-07-24T09:15:57;30.60;99.90
59234;DHT22;60776;51.702;7.462;2023-07-24T09:18:25;31.40;99.90
59234;DHT22;60776;51.702;7.462;2023-07-24T09:20:51;31.50;99.90
59234;DHT22;60776;51.702;7.462;2023-07-24T09:23:26;31.30;99.30
59234;DHT22;60776;51.702;7.462;2023-07-24T09:25:52;31.30;97.90
59234;DHT22;60776;51.702;7.462;2023-07-24T09:28:18;31.60;99.90
59234;DHT22;60776;51.702;7.462;2023-07-24T09:30:55;32.50;98.00
59234;DHT22;60776;51.702;7.462;2023-07-24T09:33:34;33.50;90.60
59234;DHT22;60776;51.702;7.462;2023-07-24T09:36:01;33.80;81.50
59234;DHT22;60776;51.702;7.462;2023-07-24T09:38:27;33.20;79.70
59234;DHT22;60776;51.702;7.462;2023-07-24T09:40:53;32.40;80.20
59234;DHT22;60776;51.702;7.462;2023-07-24T09:43:25;31.40;79.50
59234;DHT22;60776;51.702;7.462;2023-07-24T09:45:53;30.50;84.30
59234;DHT22;60776;51.702;7.462;2023-07-24T09:48:20;30.30;92.00
59234;DHT22;60776;51.702;7.462;2023-07-24T09:50:47;31.60;91.30
59234;DHT22;60776;51.702;7.462;2023-07-24T09:53:31;33.20;81.30
59234;DHT22;60776;51.702;7.462;2023-07-24T09:56:05;35.10;79.90
59234;DHT22;60776;51.702;7.462;2023-07-24T09:58:39;36.90;68.40
59234;DHT22;60776;51.702;7.462;2023-07-24T10:01:09;37.90;59.00
59234;DHT22;60776;51.702;7.462;2023-07-24T10:03:40;37.40;57.90
59234;DHT22;60776;51.702;7.462;2023-07-24T10:06:08;36.50;57.30
59234;DHT22;60776;51.702;7.462;2023-07-24T10:08:36;36.00;57.60
59234;DHT22;60776;51.702;7.462;2023-07-24T10:11:02;35.30;57.50
59234;DHT22;60776;51.702;7.462;2023-07-24T10:13:28;34.40;59.40
59234;DHT22;60776;51.702;7.462;2023-07-24T10:15:55;33.40;60.70
59234;DHT22;60776;51.702;7.462;2023-07-24T10:18:28;32.40;63.00
59234;DHT22;60776;51.702;7.462;2023-07-24T10:21:07;31.30;66.20
59234;DHT22;60776;51.702;7.462;2023-07-24T10:23:40;30.40;69.40
59234;DHT22;60776;51.702;7.462;2023-07-24T10:26:07;29.50;73.20
59234;DHT22;60776;51.702;7.462;2023-07-24T10:28:37;28.90;80.60
59234;DHT22;60776;51.702;7.462;2023-07-24T10:31:07;28.50;89.40
59234;DHT22;60776;51.702;7.462;2023-07-24T10:33:35;27.80;98.70
59234;DHT22;60776;51.702;7.462;2023-07-24T10:36:08;27.30;99.90
59234;DHT22;60776;51.702;7.462;2023-07-24T10:38:41;26.90;99.90
59234;DHT22;60776;51.702;7.462;2023-07-24T10:41:10;26.60;99.90
59234;DHT22;60776;51.702;7.462;2023-07-24T10:43:44;26.40;99.90
59234;DHT22;60776;51.702;7.462;2023-07-24T10:46:11;26.30;99.90
59234;DHT22;60776;51.702;7.462;2023-07-24T10:48:37;26.30;99.90
59234;DHT22;60776;51.702;7.462;2023-07-24T10:51:09;26.10;99.90
59234;DHT22;60776;51.702;7.462;2023-07-24T10:53:40;26.00;99.90
59234;DHT22;60776;51.702;7.462;2023-07-24T10:56:07;26.00;99.90
59234;DHT22;60776;51.702;7.462;2023-07-24T10:58:33;26.60;99.90
59234;DHT22;60776;51.702;7.462;2023-07-24T11:01:04;27.20;99.90
59234;DHT22;60776;51.702;7.462;2023-07-24T11:03:35;27.90;99.90
59234;DHT22;60776;51.702;7.462;2023-07-24T11:06:02;29.20;99.90
59234;DHT22;60776;51.702;7.462;2023-07-24T11:08:28;30.00;99.90
59234;DHT22;60776;51.702;7.462;2023-07-24T11:10:55;30.50;99.90
59234;DHT22;60776;51.702;7.462;2023-07-24T11:13:24;30.50;99.90
59234;DHT22;60776;51.702;7.462;2023-07-24T11:15:53;30.00;97.70
59234;DHT22;60776;51.702;7.462;2023-07-24T11:18:22;29.90;99.90
59234;DHT22;60776;51.702;7.462;2023-07-24T11:20:54;30.60;99.90
59234;DHT22;60776;51.702;7.462;2023-07-24T11:23:21;31.00;94.70
59234;DHT22;60776;51.702;7.462;2023-07-24T11:25:50;30.20;94.30
59234;DHT22;60776;51.702;7.462;2023-07-24T11:28:19;30.00;98.70
59234;DHT22;60776;51.702;7.462;2023-07-24T11:30:45;30.10;97.30
59234;DHT22;60776;51.702;7.462;2023-07-24T11:33:14;29.60;97.20
59234;DHT22;60776;51.702;7.462;2023-07-24T11:35:40;28.90;97.40
59234;DHT22;60776;51.702;7.462;2023-07-24T11:38:08;28.20;99.90
59234;DHT22;60776;51.702;7.462;2023-07-24T11:40:42;26.80;99.90
59234;DHT22;60776;51.702;7.462;2023-07-24T11:43:25;25.90;99.90
59234;DHT22;60776;51.702;7.462;2023-07-24T11:45:52;25.20;99.90
59234;DHT22;60776;51.702;7.462;2023-07-24T11:48:20;24.80;99.90
59234;DHT22;60776;51.702;7.462;2023-07-24T11:50:55;24.60;99.90
59234;DHT22;60776;51.702;7.462;2023-07-24T11:53:28;24.40;99.90
59234;DHT22;60776;51.702;7.462;2023-07-24T11:55:59;24.20;99.90
59234;DHT22;60776;51.702;7.462;2023-07-24T11:58:27;23.90;99.90
59234;DHT22;60776;51.702;7.462;2023-07-24T12:00:54;23.30;99.90
59234;DHT22;60776;51.702;7.462;2023-07-24T12:03:25;22.90;99.90
59234;DHT22;60776;51.702;7.462;2023-07-24T12:05:51;22.30;99.90
59234;DHT22;60776;51.702;7.462;2023-07-24T12:08:18;21.80;99.90
59234;DHT22;60776;51.702;7.462;2023-07-24T12:10:44;21.30;99.90
59234;DHT22;60776;51.702;7.462;2023-07-24T12:13:10;21.20;99.90
59234;DHT22;60776;51.702;7.462;2023-07-24T12:15:36;21.10;99.90
59234;DHT22;60776;51.702;7.462;2023-07-24T12:18:03;21.10;99.90
59234;DHT22;60776;51.702;7.462;2023-07-24T12:20:29;20.90;99.90
59234;DHT22;60776;51.702;7.462;2023-07-24T12:22:56;20.80;99.90
59234;DHT22;60776;51.702;7.462;2023-07-24T12:25:24;20.60;99.90
59234;DHT22;60776;51.702;7.462;2023-07-24T12:27:50;20.30;99.90
59234;DHT22;60776;51.702;7.462;2023-07-24T12:30:16;20.00;99.90
59234;DHT22;60776;51.702;7.462;2023-07-24T12:32:42;20.00;99.90
59234;DHT22;60776;51.702;7.462;2023-07-24T12:35:10;20.00;99.90
59234;DHT22;60776;51.702;7.462;2023-07-24T12:37:36;19.90;99.90
59234;DHT22;60776;51.702;7.462;2023-07-24T12:40:02;19.80;99.90
59234;DHT22;60776;51.702;7.462;2023-07-24T12:42:28;19.60;99.90
59234;DHT22;60776;51.702;7.462;2023-07-24T12:44:54;19.10;99.90
59234;DHT22;60776;51.702;7.462;2023-07-24T12:47:19;18.70;99.90
59234;DHT22;60776;51.702;7.462;2023-07-24T12:49:45;18.40;99.90
59234;DHT22;60776;51.702;7.462;2023-07-24T12:52:11;18.10;99.90
59234;DHT22;60776;51.702;7.462;2023-07-24T12:54:37;17.80;99.90
59234;DHT22;60776;51.702;7.462;2023-07-24T12:57:03;17.80;99.90
59234;DHT22;60776;51.702;7.462;2023-07-24T12:59:29;17.90;99.90
59234;DHT22;60776;51.702;7.462;2023-07-24T13:01:55;18.10;99.90
59234;DHT22;60776;51.702;7.462;2023-07-24T13:04:21;18.60;99.90
59234;DHT22;60776;51.702;7.462;2023-07-24T13:06:47;19.10;99.90
59234;DHT22;60776;51.702;7.462;2023-07-24T13:09:13;19.60;99.90
59234;DHT22;60776;51.702;7.462;2023-07-24T13:11:38;20.10;99.90
59234;DHT22;60776;51.702;7.462;2023-07-24T13:14:04;20.60;99.90
59234;DHT22;60776;51.702;7.462;2023-07-24T13:16:30;20.80;99.90
59234;DHT22;60776;51.702;7.462;2023-07-24T13:18:55;20.90;99.90
59234;DHT22;60776;51.702;7.462;2023-07-24T13:21:21;20.90;99.90
59234;DHT22;60776;51.702;7.462;2023-07-24T13:23:47;20.90;99.90
59234;DHT22;60776;51.702;7.462;2023-07-24T13:26:14;21.10;99.90
59234;DHT22;60776;51.702;7.462;2023-07-24T13:28:40;21.30;99.90
59234;DHT22;60776;51.702;7.462;2023-07-24T13:33:37;21.60;99.90
59234;DHT22;60776;51.702;7.462;2023-07-24T13:36:03;21.90;99.90
59234;DHT22;60776;51.702;7.462;2023-07-24T13:38:29;22.40;99.90
59234;DHT22;60776;51.702;7.462;2023-07-24T13:40:54;22.70;99.90
59234;DHT22;60776;51.702;7.462;2023-07-24T13:43:20;22.80;99.90
59234;DHT22;60776;51.702;7.462;2023-07-24T13:45:45;22.80;99.90
59234;DHT22;60776;51.702;7.462;2023-07-24T13:48:11;22.80;99.90
59234;DHT22;60776;51.702;7.462;2023-07-24T13:50:37;22.80;99.90
59234;DHT22;60776;51.702;7.462;2023-07-24T13:53:02;22.80;99.90
59234;DHT22;60776;51.702;7.462;2023-07-24T13:55:28;23.00;99.90
59234;DHT22;60776;51.702;7.462;2023-07-24T13:57:53;23.10;99.90
59234;DHT22;60776;51.702;7.462;2023-07-24T14:00:19;23.10;99.90
59234;DHT22;60776;51.702;7.462;2023-07-24T14:02:45;23.20;99.90
59234;DHT22;60776;51.702;7.462;2023-07-24T14:05:10;23.30;99.90
59234;DHT22;60776;51.702;7.462;2023-07-24T14:07:36;23.40;99.90
59234;DHT22;60776;51.702;7.462;2023-07-24T14:10:01;23.60;99.90
59234;DHT22;60776;51.702;7.462;2023-07-24T14:12:27;23.70;99.90
59234;DHT22;60776;51.702;7.462;2023-07-24T14:14:53;23.90;99.90
59234;DHT22;60776;51.702;7.462;2023-07-24T14:17:18;24.00;99.90
59234;DHT22;60776;51.702;7.462;2023-07-24T14:19:44;24.20;99.90
59234;DHT22;60776;51.702;7.462;2023-07-24T14:22:10;24.30;99.90
59234;DHT22;60776;51.702;7.462;2023-07-24T14:24:38;24.20;99.90
59234;DHT22;60776;51.702;7.462;2023-07-24T14:27:04;24.20;99.90
59234;DHT22;60776;51.702;7.462;2023-07-24T14:29:32;24.10;99.90
59234;DHT22;60776;51.702;7.462;2023-07-24T14:31:58;24.20;99.90
59234;DHT22;60776;51.702;7.462;2023-07-24T14:34:23;24.30;99.90
59234;DHT22;60776;51.702;7.462;2023-07-24T14:36:49;24.70;99.90
59234;DHT22;60776;51.702;7.462;2023-07-24T14:39:15;25.00;99.90
59234;DHT22;60776;51.702;7.462;2023-07-24T14:41:40;25.20;99.90
59234;DHT22;60776;51.702;7.462;2023-07-24T14:44:06;25.20;99.90
59234;DHT22;60776;51.702;7.462;2023-07-24T14:46:32;25.30;99.90
59234;DHT22;60776;51.702;7.462;2023-07-24T14:48:57;25.30;99.90
59234;DHT22;60776;51.702;7.462;2023-07-24T14:51:23;25.10;99.90
59234;DHT22;60776;51.702;7.462;2023-07-24T14:53:50;25.20;99.90
59234;DHT22;60776;51.702;7.462;2023-07-24T14:56:16;25.20;99.90
59234;DHT22;60776;51.702;7.462;2023-07-24T14:58:41;25.20;99.90
59234;DHT22;60776;51.702;7.462;2023-07-24T15:01:10;25.20;99.90
59234;DHT22;60776;51.702;7.462;2023-07-24T15:03:36;25.10;99.90
59234;DHT22;60776;51.702;7.462;2023-07-24T15:06:02;25.20;99.90
59234;DHT22;60776;51.702;7.462;2023-07-24T15:08:30;25.30;99.90
59234;DHT22;60776;51.702;7.462;2023-07-24T15:10:56;25.50;99.90
59234;DHT22;60776;51.702;7.462;2023-07-24T15:13:24;25.60;99.90
59234;DHT22;60776;51.702;7.462;2023-07-24T15:15:50;25.60;99.90
59234;DHT22;60776;51.702;7.462;2023-07-24T15:18:15;25.60;99.90
59234;DHT22;60776;51.702;7.462;2023-07-24T15:20:44;25.50;99.90
59234;DHT22;60776;51.702;7.462;2023-07-24T15:23:11;25.40;99.90
59234;DHT22;60776;51.702;7.462;2023-07-24T15:25:38;25.20;99.90
59234;DHT22;60776;51.702;7.462;2023-07-24T15:28:04;25.20;99.90
59234;DHT22;60776;51.702;7.462;2023-07-24T15:30:30;25.30;99.90
59234;DHT22;60776;51.702;7.462;2023-07-24T15:32:56;25.60;99.90
59234;DHT22;60776;51.702;7.462;2023-07-24T15:35:21;25.90;99.90
59234;DHT22;60776;51.702;7.462;2023-07-24T15:37:47;26.20;99.90